createdAt,value
2022-09-27T00:01:04.880Z,20.83
2022-09-27T00:03:33.115Z,20.95
2022-09-27T00:06:02.677Z,20.27
2022-09-27T00:08:30.243Z,16.17
2022-09-27T00:11:01.983Z,17.05
2022-09-27T00:13:29.657Z,17.92
2022-09-27T00:16:00.988Z,15.93
2022-09-27T00:20:56.146Z,14.50
2022-09-27T00:23:23.837Z,23.83
2022-09-27T00:26:00.752Z,22.83
2022-09-27T00:28:28.725Z,15.40
2022-09-27T00:30:56.408Z,15.80
2022-09-27T00:33:24.048Z,13.55
2022-09-27T00:35:51.745Z,21.42
2022-09-27T00:38:19.494Z,22.75
2022-09-27T00:40:47.072Z,18.60
2022-09-27T00:43:22.542Z,19.25
2022-09-27T00:45:57.961Z,20.90
2022-09-27T00:48:27.991Z,19.52
2022-09-27T00:50:57.719Z,20.02
2022-09-27T00:53:29.926Z,22.73
2022-09-27T00:56:02.391Z,29.13
2022-09-27T00:58:57.977Z,23.70
2022-09-27T01:01:25.592Z,21.95
2022-09-27T01:04:06.505Z,17.50
2022-09-27T01:06:34.045Z,19.50
2022-09-27T01:09:01.698Z,17.30
2022-09-27T01:11:36.697Z,22.55
2022-09-27T01:14:16.439Z,21.48
2022-09-27T01:16:53.481Z,23.00
2022-09-27T01:19:34.579Z,16.35
2022-09-27T01:22:18.708Z,17.65
2022-09-27T01:25:12.228Z,19.80
2022-09-27T01:27:51.440Z,18.05
2022-09-27T01:30:34.029Z,24.42
2022-09-27T01:33:12.724Z,21.67
2022-09-27T01:36:02.298Z,20.33
2022-09-27T01:38:41.890Z,21.48
2022-09-27T01:41:17.038Z,22.83
2022-09-27T01:44:07.190Z,18.58
2022-09-27T01:46:42.441Z,131.35
2022-09-27T01:49:18.572Z,52.08
2022-09-27T01:52:08.811Z,50.08
2022-09-27T01:54:48.317Z,50.67
2022-09-27T01:57:31.206Z,28.60
2022-09-27T02:00:02.111Z,22.80
2022-09-27T02:02:46.677Z,24.75
2022-09-27T02:05:50.206Z,27.23
2022-09-27T02:08:37.069Z,22.33
2022-09-27T02:11:14.844Z,28.90
2022-09-27T02:13:53.453Z,44.22
2022-09-27T02:16:47.084Z,72.53
2022-09-27T02:19:24.877Z,89.25
2022-09-27T02:22:10.288Z,84.50
2022-09-27T02:24:42.916Z,85.20
2022-09-27T02:27:14.278Z,80.70
2022-09-27T02:32:11.700Z,101.55
2022-09-27T02:34:39.436Z,116.40
2022-09-27T02:37:06.973Z,134.93
2022-09-27T02:39:35.366Z,129.02
2022-09-27T02:42:06.004Z,83.15
2022-09-27T02:44:34.308Z,79.22
2022-09-27T02:47:40.005Z,62.65
2022-09-27T02:50:26.834Z,70.55
2022-09-27T02:53:19.143Z,60.67
2022-09-27T02:56:28.864Z,66.63
2022-09-27T02:59:14.862Z,53.65
2022-09-27T03:02:30.671Z,65.95
2022-09-27T03:05:25.785Z,64.90
2022-09-27T03:07:53.374Z,70.63
2022-09-27T03:10:26.222Z,70.07
2022-09-27T03:12:54.568Z,86.05
2022-09-27T03:15:22.117Z,88.32
2022-09-27T03:18:10.708Z,94.18
2022-09-27T03:20:57.112Z,95.65
2022-09-27T03:23:27.772Z,72.77
2022-09-27T03:25:55.916Z,68.75
2022-09-27T03:28:24.581Z,73.05
2022-09-27T03:30:52.547Z,62.35
2022-09-27T03:33:40.805Z,63.90
2022-09-27T03:36:12.470Z,48.03
2022-09-27T03:38:40.488Z,40.60
2022-09-27T03:41:11.783Z,48.00
2022-09-27T03:43:41.898Z,48.85
2022-09-27T03:46:09.516Z,41.22
2022-09-27T03:48:37.445Z,53.92
2022-09-27T03:51:05.191Z,39.33
2022-09-27T03:53:32.886Z,53.42
2022-09-27T03:56:00.893Z,48.75
2022-09-27T03:58:29.212Z,67.25
2022-09-27T04:00:56.761Z,64.18
2022-09-27T04:03:24.929Z,61.97
2022-09-27T04:06:11.437Z,61.08
2022-09-27T04:08:42.925Z,62.00
2022-09-27T04:11:12.182Z,60.13
2022-09-27T04:13:44.684Z,53.33
2022-09-27T04:16:13.201Z,47.35
2022-09-27T04:18:50.930Z,55.13
2022-09-27T04:21:39.317Z,38.00
2022-09-27T04:24:08.731Z,28.65
2022-09-27T04:26:37.308Z,34.53
2022-09-27T04:29:11.407Z,33.92
2022-09-27T04:31:44.593Z,37.35
2022-09-27T04:34:51.106Z,35.40
2022-09-27T04:37:23.481Z,33.38
2022-09-27T04:39:54.901Z,37.38
2022-09-27T04:42:22.412Z,33.78
2022-09-27T04:44:50.016Z,33.53
2022-09-27T04:47:18.598Z,40.33
2022-09-27T04:49:46.121Z,36.90
2022-09-27T04:52:15.598Z,42.55
2022-09-27T04:54:43.432Z,35.53
2022-09-27T04:57:12.971Z,36.97
2022-09-27T04:59:41.715Z,34.42
2022-09-27T05:02:09.983Z,32.22
2022-09-27T05:04:59.976Z,28.70
2022-09-27T05:07:34.333Z,21.33
2022-09-27T05:10:07.157Z,27.88
2022-09-27T05:12:35.799Z,23.13
2022-09-27T05:15:04.752Z,21.23
2022-09-27T05:17:52.511Z,25.13
2022-09-27T05:20:32.299Z,22.98
2022-09-27T05:23:08.302Z,23.23
2022-09-27T05:25:37.270Z,24.02
2022-09-27T05:28:05.643Z,31.08
2022-09-27T05:30:33.594Z,35.85
2022-09-27T05:33:12.156Z,32.10
2022-09-27T05:35:55.398Z,26.02
2022-09-27T05:38:26.219Z,32.22
2022-09-27T05:40:57.233Z,34.00
2022-09-27T05:43:25.646Z,29.20
2022-09-27T05:45:54.001Z,23.27
2022-09-27T05:48:23.621Z,24.58
2022-09-27T05:51:01.646Z,26.38
2022-09-27T05:53:32.575Z,27.90
2022-09-27T05:56:04.234Z,33.20
2022-09-27T05:58:50.386Z,22.38
2022-09-27T06:01:20.085Z,32.63
2022-09-27T06:04:06.186Z,27.90
2022-09-27T06:07:09.320Z,27.13
2022-09-27T06:09:36.865Z,28.10
2022-09-27T06:12:04.639Z,24.73
2022-09-27T06:14:32.393Z,24.42
2022-09-27T06:17:05.565Z,22.60
2022-09-27T06:19:35.899Z,27.25
2022-09-27T06:22:03.589Z,26.05
2022-09-27T06:24:41.909Z,27.50
2022-09-27T06:27:18.864Z,29.10
2022-09-27T06:30:20.477Z,28.70
2022-09-27T06:32:59.049Z,30.58
2022-09-27T06:35:38.813Z,32.08
2022-09-27T06:38:09.045Z,27.15
2022-09-27T06:40:39.446Z,30.10
2022-09-27T06:43:20.024Z,23.75
2022-09-27T06:46:13.825Z,20.42
2022-09-27T06:49:20.121Z,22.80
2022-09-27T06:51:49.665Z,21.52
2022-09-27T06:54:17.209Z,27.85
2022-09-27T06:56:47.274Z,27.10
2022-09-27T06:59:33.751Z,29.48
2022-09-27T07:02:19.785Z,42.50
2022-09-27T07:04:59.169Z,37.22
2022-09-27T07:07:40.218Z,29.50
2022-09-27T07:10:10.028Z,28.98
2022-09-27T07:12:38.537Z,26.05
2022-09-27T07:15:06.853Z,28.52
2022-09-27T07:17:37.518Z,26.13
2022-09-27T07:20:05.810Z,21.92
2022-09-27T07:22:33.457Z,20.98
2022-09-27T07:25:04.138Z,24.07
2022-09-27T07:27:33.217Z,22.27
2022-09-27T07:30:01.550Z,22.77
2022-09-27T07:32:29.257Z,22.50
2022-09-27T07:34:56.801Z,25.80
2022-09-27T07:37:24.460Z,31.00
2022-09-27T07:39:52.622Z,37.85
2022-09-27T07:42:20.758Z,37.85
2022-09-27T07:44:52.012Z,36.03
2022-09-27T07:47:39.635Z,47.08
2022-09-27T07:50:17.265Z,52.97
2022-09-27T07:52:55.613Z,44.22
2022-09-27T07:55:35.047Z,47.47
2022-09-27T07:58:30.648Z,37.03
2022-09-27T08:01:02.681Z,44.83
2022-09-27T08:03:31.334Z,38.47
2022-09-27T08:06:02.311Z,38.13
2022-09-27T08:08:30.976Z,37.17
2022-09-27T08:11:01.177Z,42.25
2022-09-27T08:13:31.494Z,38.40
2022-09-27T08:16:02.184Z,42.40
2022-09-27T08:18:34.114Z,33.70
2022-09-27T08:21:21.974Z,36.15
2022-09-27T08:24:11.239Z,37.35
2022-09-27T08:27:11.499Z,32.72
2022-09-27T08:29:53.893Z,32.30
2022-09-27T08:32:23.471Z,39.78
2022-09-27T08:34:52.320Z,38.25
2022-09-27T08:37:22.051Z,38.10
2022-09-27T08:39:50.920Z,40.13
2022-09-27T08:42:25.337Z,40.65
2022-09-27T08:45:04.503Z,34.45
2022-09-27T08:47:39.541Z,38.27
2022-09-27T08:50:29.202Z,48.40
2022-09-27T08:53:19.559Z,35.78
2022-09-27T08:55:48.400Z,54.83
2022-09-27T08:58:26.539Z,46.58
2022-09-27T09:00:57.752Z,44.83
2022-09-27T09:03:30.291Z,44.13
2022-09-27T09:06:16.661Z,44.15
2022-09-27T09:09:08.514Z,43.03
2022-09-27T09:12:05.828Z,47.92
2022-09-27T09:15:00.786Z,47.67
2022-09-27T09:18:03.088Z,37.80
2022-09-27T09:21:21.192Z,41.53
2022-09-27T09:24:08.256Z,33.20
2022-09-27T09:26:45.860Z,39.85
2022-09-27T09:29:43.933Z,29.67
2022-09-27T09:32:23.413Z,33.63
2022-09-27T09:35:06.613Z,27.90
2022-09-27T09:37:41.212Z,26.45
2022-09-27T09:40:20.404Z,29.38
2022-09-27T09:43:14.519Z,25.27
2022-09-27T09:46:46.757Z,30.48
2022-09-27T09:49:18.592Z,32.90
2022-09-27T09:51:51.322Z,35.15
2022-09-27T09:54:42.640Z,34.50
2022-09-27T09:57:25.936Z,49.30
2022-09-27T09:59:58.569Z,32.30
2022-09-27T10:02:26.076Z,28.63
2022-09-27T10:04:58.353Z,26.83
2022-09-27T10:07:26.276Z,27.00
2022-09-27T10:12:52.548Z,34.75
2022-09-27T10:17:54.475Z,32.25
2022-09-27T10:20:45.859Z,31.35
2022-09-27T10:23:21.283Z,39.97
2022-09-27T10:26:09.236Z,83.95
2022-09-27T10:28:47.620Z,66.75
2022-09-27T10:31:19.917Z,34.72
2022-09-27T10:34:05.333Z,96.55
2022-09-27T10:36:40.029Z,34.17
2022-09-27T10:39:21.359Z,33.58
2022-09-27T10:44:27.824Z,41.20
2022-09-27T10:47:23.054Z,38.70
2022-09-27T10:50:22.795Z,35.95
2022-09-27T10:53:12.357Z,41.63
2022-09-27T10:55:41.269Z,30.58
2022-09-27T10:58:20.253Z,32.45
2022-09-27T11:00:56.619Z,44.33
2022-09-27T11:03:25.725Z,47.13
2022-09-27T11:05:54.915Z,29.38
2022-09-27T11:08:30.626Z,25.80
2022-09-27T11:11:07.190Z,30.40
2022-09-27T11:13:37.999Z,31.30
2022-09-27T11:16:22.592Z,31.05
2022-09-27T11:19:18.519Z,29.73
2022-09-27T11:22:08.609Z,26.60
2022-09-27T11:24:58.347Z,32.22
2022-09-27T11:27:34.627Z,30.88
2022-09-27T11:30:13.086Z,34.47
2022-09-27T11:33:55.089Z,31.40
2022-09-27T11:37:05.291Z,31.25
2022-09-27T11:39:52.967Z,28.23
2022-09-27T11:43:05.807Z,35.30
2022-09-27T11:46:14.403Z,35.65
2022-09-27T11:48:41.010Z,30.52
2022-09-27T11:51:27.897Z,26.73
2022-09-27T11:54:13.965Z,32.65
2022-09-27T11:56:58.137Z,32.28
2022-09-27T11:59:47.816Z,37.40
2022-09-27T12:02:39.858Z,34.00
2022-09-27T12:05:28.891Z,37.70
2022-09-27T12:08:27.431Z,31.98
2022-09-27T12:11:01.952Z,30.30
2022-09-27T12:13:37.074Z,24.30
2022-09-27T12:16:04.998Z,21.95
2022-09-27T12:18:39.175Z,24.77
2022-09-27T12:21:16.889Z,33.10
2022-09-27T12:23:44.396Z,22.17
2022-09-27T12:26:35.927Z,22.02
2022-09-27T12:29:45.325Z,27.85
2022-09-27T12:32:20.998Z,36.13
2022-09-27T12:34:56.828Z,36.05
2022-09-27T12:37:36.277Z,37.53
2022-09-27T12:40:16.687Z,42.97
2022-09-27T12:42:49.354Z,27.02
2022-09-27T12:45:58.133Z,22.98
2022-09-27T12:48:41.999Z,24.00
2022-09-27T12:51:11.913Z,24.40
2022-09-27T12:54:10.911Z,29.85
2022-09-27T12:57:32.538Z,25.25
2022-09-27T13:00:05.794Z,44.30
2022-09-27T13:03:14.593Z,53.05
2022-09-27T13:06:22.229Z,31.17
2022-09-27T13:09:16.214Z,22.95
2022-09-27T13:12:01.600Z,35.95
2022-09-27T13:14:35.610Z,39.50
2022-09-27T13:17:03.246Z,31.58
2022-09-27T13:19:42.628Z,24.50
2022-09-27T13:22:26.964Z,37.28
2022-09-27T13:25:54.319Z,27.73
2022-09-27T13:29:03.311Z,30.77
2022-09-27T13:32:19.172Z,32.45
2022-09-27T13:35:33.817Z,35.75
2022-09-27T13:38:22.756Z,35.13
2022-09-27T13:40:51.164Z,34.58
2022-09-27T13:44:05.407Z,33.20
2022-09-27T13:47:13.356Z,36.80
2022-09-27T13:49:42.212Z,29.50
2022-09-27T13:52:15.428Z,30.95
2022-09-27T13:54:56.227Z,32.22
2022-09-27T13:57:46.008Z,32.17
2022-09-27T14:00:18.831Z,35.92
2022-09-27T14:03:05.265Z,32.53
2022-09-27T14:05:41.465Z,32.88
2022-09-27T14:08:25.961Z,39.55
2022-09-27T14:10:53.729Z,36.13
2022-09-27T14:13:21.888Z,33.20
2022-09-27T14:16:00.032Z,30.65
2022-09-27T14:18:27.745Z,37.75
2022-09-27T14:20:56.583Z,32.63
2022-09-27T14:23:50.937Z,35.40
2022-09-27T14:26:28.025Z,39.85
2022-09-27T14:28:55.845Z,33.33
2022-09-27T14:31:31.390Z,34.63
2022-09-27T14:34:06.563Z,23.95
2022-09-27T14:36:52.781Z,26.40
2022-09-27T14:39:23.448Z,27.27
2022-09-27T14:41:52.940Z,24.48
2022-09-27T14:44:23.621Z,23.63
2022-09-27T14:47:11.424Z,27.48
2022-09-27T14:49:47.400Z,30.48
2022-09-27T14:52:21.948Z,35.35
2022-09-27T14:54:57.292Z,38.83
2022-09-27T14:57:26.258Z,38.20
2022-09-27T14:59:54.021Z,36.67
2022-09-27T15:02:22.576Z,28.00
2022-09-27T15:04:51.437Z,24.02
2022-09-27T15:07:19.845Z,23.70
2022-09-27T15:09:48.033Z,18.92
2022-09-27T15:12:23.015Z,21.70
2022-09-27T15:14:54.114Z,23.77
2022-09-27T15:17:22.111Z,22.73
2022-09-27T15:19:57.641Z,24.98
2022-09-27T15:22:34.596Z,25.23
2022-09-27T15:25:19.355Z,27.20
2022-09-27T15:27:49.200Z,24.83
2022-09-27T15:30:21.663Z,26.58
2022-09-27T15:32:51.737Z,31.85
2022-09-27T15:35:23.399Z,34.17
2022-09-27T15:37:51.251Z,32.88
2022-09-27T15:40:19.787Z,34.92
2022-09-27T15:43:01.528Z,65.75
2022-09-27T15:45:31.130Z,73.78
2022-09-27T15:48:06.649Z,38.38
2022-09-27T15:50:34.420Z,30.33
2022-09-27T15:53:04.100Z,28.20
2022-09-27T15:55:31.718Z,30.08
2022-09-27T15:58:08.344Z,32.85
2022-09-27T16:00:36.402Z,30.17
2022-09-27T16:03:04.212Z,30.10
2022-09-27T16:05:33.364Z,32.13
2022-09-27T16:08:01.304Z,35.10
2022-09-27T16:10:37.373Z,32.08
2022-09-27T16:13:05.034Z,38.53
2022-09-27T16:15:32.637Z,29.77
2022-09-27T16:18:00.303Z,42.22
2022-09-27T16:20:28.137Z,31.05
2022-09-27T16:22:56.087Z,34.90
2022-09-27T16:25:23.820Z,30.08
2022-09-27T16:27:52.576Z,33.63
2022-09-27T16:30:20.879Z,41.35
2022-09-27T16:32:48.981Z,38.50
2022-09-27T16:35:17.552Z,40.58
2022-09-27T16:37:45.444Z,42.33
2022-09-27T16:40:13.604Z,37.85
2022-09-27T16:42:41.430Z,34.58
2022-09-27T16:45:12.000Z,30.92
2022-09-27T16:47:42.327Z,27.75
2022-09-27T16:50:29.484Z,32.90
2022-09-27T16:52:57.221Z,35.10
2022-09-27T16:55:26.268Z,42.00
2022-09-27T16:57:54.132Z,41.90
2022-09-27T17:00:21.800Z,42.85
2022-09-27T17:02:49.828Z,48.47
2022-09-27T17:05:18.422Z,64.07
2022-09-27T17:07:46.299Z,74.57
2022-09-27T17:10:15.311Z,79.60
2022-09-27T17:12:44.541Z,70.10
2022-09-27T17:15:12.228Z,73.50
2022-09-27T17:17:39.946Z,78.72
2022-09-27T17:20:07.627Z,91.13
2022-09-27T17:22:35.380Z,82.05
2022-09-27T17:25:06.819Z,82.97
2022-09-27T17:27:36.496Z,70.63
2022-09-27T17:30:06.978Z,53.85
2022-09-27T17:32:34.991Z,54.05
2022-09-27T17:35:02.844Z,30.35
2022-09-27T17:37:30.559Z,26.08
2022-09-27T17:39:58.159Z,21.02
2022-09-27T17:42:25.924Z,31.90
2022-09-27T17:44:53.628Z,31.10
2022-09-27T17:47:39.596Z,37.17
2022-09-27T17:50:28.669Z,36.97
2022-09-27T17:52:57.424Z,26.05
2022-09-27T17:55:25.228Z,27.58
2022-09-27T17:57:52.976Z,26.20
2022-09-27T18:00:20.919Z,27.73
2022-09-27T18:02:48.712Z,29.75
2022-09-27T18:05:18.473Z,28.77
2022-09-27T18:07:47.825Z,22.20
2022-09-27T18:10:17.816Z,21.30
2022-09-27T18:12:45.525Z,24.20
2022-09-27T18:15:13.310Z,30.25
2022-09-27T18:17:41.034Z,33.38
2022-09-27T18:20:08.974Z,29.42
2022-09-27T18:22:36.701Z,30.75
2022-09-27T18:25:05.564Z,35.47
2022-09-27T18:27:34.747Z,58.35
2022-09-27T18:30:03.571Z,58.45
2022-09-27T18:32:31.371Z,62.50
2022-09-27T18:34:58.830Z,54.08
2022-09-27T18:37:27.203Z,56.70
2022-09-27T18:39:55.769Z,56.08
2022-09-27T18:42:23.392Z,65.07
2022-09-27T18:44:51.441Z,70.22
2022-09-27T18:47:19.307Z,79.53
2022-09-27T18:49:47.049Z,78.68
2022-09-27T18:52:15.182Z,81.88
2022-09-27T18:54:43.767Z,91.55
2022-09-27T18:57:11.358Z,102.22
2022-09-27T18:59:39.456Z,99.82
2022-09-27T19:02:07.154Z,96.57
2022-09-27T19:04:36.760Z,113.47
2022-09-27T19:07:04.506Z,116.63
2022-09-27T19:09:32.220Z,68.95
2022-09-27T19:12:02.444Z,64.13
2022-09-27T19:14:30.173Z,57.30
2022-09-27T19:16:57.689Z,35.13
2022-09-27T19:19:25.895Z,33.10
2022-09-27T19:21:53.456Z,28.65
2022-09-27T19:24:21.077Z,28.38
2022-09-27T19:26:53.743Z,31.63
2022-09-27T19:29:21.393Z,30.80
2022-09-27T19:31:48.949Z,41.55
2022-09-27T19:34:16.668Z,51.40
2022-09-27T19:36:44.287Z,58.47
2022-09-27T19:39:12.762Z,69.22
2022-09-27T19:41:40.466Z,79.32
2022-09-27T19:44:08.196Z,78.88
2022-09-27T19:46:36.069Z,73.18
2022-09-27T19:49:06.015Z,67.47
2022-09-27T19:51:34.185Z,73.95
2022-09-27T19:54:01.829Z,63.13
2022-09-27T19:56:29.833Z,45.92
2022-09-27T19:58:58.526Z,47.65
2022-09-27T20:01:26.329Z,48.85
2022-09-27T20:03:55.874Z,45.25
2022-09-27T20:06:23.828Z,46.72
2022-09-27T20:08:51.433Z,44.15
2022-09-27T20:11:20.440Z,46.28
2022-09-27T20:13:49.361Z,41.05
2022-09-27T20:16:20.429Z,37.55
2022-09-27T20:18:53.520Z,39.00
2022-09-27T20:21:22.045Z,43.58
2022-09-27T20:23:50.542Z,44.65
2022-09-27T20:26:19.035Z,48.05
2022-09-27T20:28:50.562Z,48.92
2022-09-27T20:31:21.483Z,45.47
2022-09-27T20:33:51.877Z,53.08
2022-09-27T20:36:23.500Z,50.80
2022-09-27T20:38:52.516Z,53.80
2022-09-27T20:41:22.872Z,54.78
2022-09-27T20:43:56.122Z,52.23
2022-09-27T20:46:24.538Z,46.70
2022-09-27T20:48:53.784Z,49.65
2022-09-27T20:51:21.562Z,53.17
2022-09-27T20:53:51.366Z,50.33
2022-09-27T20:56:40.724Z,42.85
2022-09-27T20:59:15.932Z,39.35
2022-09-27T21:01:48.182Z,44.85
2022-09-27T21:04:17.252Z,43.08
2022-09-27T21:06:44.975Z,43.92
2022-09-27T21:09:19.185Z,43.30
2022-09-27T21:11:47.824Z,42.65
2022-09-27T21:14:15.837Z,46.65
2022-09-27T21:16:44.083Z,41.92
2022-09-27T21:19:11.783Z,42.80
2022-09-27T21:21:39.899Z,42.53
2022-09-27T21:24:07.469Z,39.33
2022-09-27T21:26:36.204Z,39.30
2022-09-27T21:29:09.487Z,31.92
2022-09-27T21:31:38.172Z,34.67
2022-09-27T21:34:06.972Z,34.60
2022-09-27T21:36:36.438Z,35.95
2022-09-27T21:39:05.099Z,36.15
2022-09-27T21:41:34.964Z,34.28
2022-09-27T21:44:04.342Z,35.10
2022-09-27T21:46:31.971Z,34.75
2022-09-27T21:49:00.246Z,42.55
2022-09-27T21:51:37.668Z,47.67
2022-09-27T21:54:07.076Z,48.15
2022-09-27T21:56:36.815Z,56.38
2022-09-27T21:59:07.856Z,57.28
2022-09-27T22:01:36.199Z,49.17
2022-09-27T22:04:04.776Z,50.38
2022-09-27T22:06:34.324Z,43.90
2022-09-27T22:09:02.021Z,43.22
2022-09-27T22:11:37.621Z,49.78
2022-09-27T22:14:07.033Z,44.90
2022-09-27T22:16:36.209Z,43.38
2022-09-27T22:19:04.460Z,52.95
2022-09-27T22:21:34.041Z,43.53
2022-09-27T22:24:07.512Z,42.72
2022-09-27T22:26:37.491Z,40.88
2022-09-27T22:29:05.565Z,43.83
2022-09-27T22:31:33.343Z,44.30
2022-09-27T22:34:03.616Z,59.05
2022-09-27T22:36:31.686Z,40.90
2022-09-27T22:39:00.492Z,46.05
2022-09-27T22:41:30.578Z,41.75
2022-09-27T22:43:58.968Z,41.83
2022-09-27T22:46:26.699Z,37.75
2022-09-27T22:48:56.331Z,44.72
2022-09-27T22:51:23.985Z,42.90
2022-09-27T22:53:51.850Z,41.08
2022-09-27T22:56:20.222Z,33.67
2022-09-27T22:58:48.253Z,36.75
2022-09-27T23:01:19.441Z,40.20
2022-09-27T23:03:47.774Z,40.92
2022-09-27T23:06:16.456Z,34.90
2022-09-27T23:08:44.386Z,33.72
2022-09-27T23:11:13.056Z,41.30
2022-09-27T23:13:41.729Z,44.63
2022-09-27T23:16:13.861Z,90.60
2022-09-27T23:18:42.282Z,104.45
2022-09-27T23:21:11.746Z,178.65
2022-09-27T23:23:41.526Z,59.58
2022-09-27T23:26:10.987Z,79.35
2022-09-27T23:28:38.724Z,51.45
2022-09-27T23:31:13.901Z,45.80
2022-09-27T23:33:43.599Z,51.53
2022-09-27T23:36:15.453Z,50.70
2022-09-27T23:38:45.715Z,45.05
2022-09-27T23:41:13.974Z,41.65
2022-09-27T23:43:42.067Z,51.08
2022-09-27T23:46:09.831Z,47.40
2022-09-27T23:48:37.807Z,54.03
2022-09-27T23:51:06.776Z,56.90
2022-09-27T23:53:34.618Z,64.72
2022-09-27T23:56:23.276Z,62.10
2022-09-27T23:58:50.804Z,74.72
